Jefferson, Jackson County Airport (KJCA)

NameJackson County Airport
CityJefferson
CountryUnited States
ICAOKJCA
IATA
Altitude290 m
CoordinatesGoogle Map
Live Air TrafficLiveATC.net
METARKJCA 220455Z AUTO 00000KT 1/4SM OVC002 14/14 A3012 RMK AO2 PWINO T01360135
2019-02-22 04:55:00 Wind: North (0°) 0 m/s - Visibility: 6437.36 m - Temperature: 14 °C - Dew point: 14 °C - Humidity: 100% - Pressure: 1019.98 hPa
Statistics

The table below shows the detailed information of all flights to/from Jefferson, Jackson County Airport (KJCA).